Terminal Aerodrome Forecast
Issued by NWS Newport/Morehead City, NC

Home | Current Version | Previous Version | Graphics & Text | Print | Product List | Glossary On
Versions: 1 2 3 4 5 6 7 8 9 10 11 12 13 14 15
000
FTUS42 KMHX 232337
TAFEWN
TAF
KEWN 232337Z 2400/2424 21010G20KT P6SM FEW050
     FM240200 21010KT P6SM BKN200
     FM240900 21009KT P6SM SCT025 BKN080
     FM241500 21010G18KT P6SM -SHRA VCTS BKN050CB=

USA.gov is the U.S. government's official web portal to all federal, state and local government web resources and services.